sensor_id;sensor_type;location;lat;lon;timestamp;temperature;humidity
21216;DHT22;10765;50.954;5.322;2024-03-23T00:55:04;7.10;99.90
21216;DHT22;10765;50.954;5.322;2024-03-23T00:57:33;7.10;99.90
21216;DHT22;10765;50.954;5.322;2024-03-23T00:59:59;6.90;99.90
21216;DHT22;10765;50.954;5.322;2024-03-23T01:02:25;7.00;99.90
21216;DHT22;10765;50.954;5.322;2024-03-23T01:04:51;7.00;99.90
21216;DHT22;10765;50.954;5.322;2024-03-23T01:07:18;6.90;99.90
21216;DHT22;10765;50.954;5.322;2024-03-23T01:09:44;6.90;99.90
21216;DHT22;10765;50.954;5.322;2024-03-23T01:12:12;6.80;99.90
21216;DHT22;10765;50.954;5.322;2024-03-23T01:14:38;6.90;99.90
21216;DHT22;10765;50.954;5.322;2024-03-23T01:17:05;6.90;99.90
21216;DHT22;10765;50.954;5.322;2024-03-23T01:19:31;6.80;99.90
21216;DHT22;10765;50.954;5.322;2024-03-23T01:21:58;6.70;99.90
21216;DHT22;10765;50.954;5.322;2024-03-23T01:24:23;6.90;99.90
21216;DHT22;10765;50.954;5.322;2024-03-23T01:26:50;7.00;99.90
21216;DHT22;10765;50.954;5.322;2024-03-23T01:29:17;7.10;99.90
21216;DHT22;10765;50.954;5.322;2024-03-23T01:31:44;7.20;99.90
21216;DHT22;10765;50.954;5.322;2024-03-23T01:34:11;7.20;99.90
21216;DHT22;10765;50.954;5.322;2024-03-23T01:36:38;7.10;99.90
21216;DHT22;10765;50.954;5.322;2024-03-23T01:39:04;7.00;99.90
21216;DHT22;10765;50.954;5.322;2024-03-23T01:41:34;7.00;99.90
21216;DHT22;10765;50.954;5.322;2024-03-23T01:44:05;6.90;99.90
21216;DHT22;10765;50.954;5.322;2024-03-23T01:46:34;6.90;99.90
21216;DHT22;10765;50.954;5.322;2024-03-23T01:49:00;6.90;99.90
21216;DHT22;10765;50.954;5.322;2024-03-23T01:51:27;6.90;99.90
21216;DHT22;10765;50.954;5.322;2024-03-23T01:53:54;6.80;99.90
21216;DHT22;10765;50.954;5.322;2024-03-23T01:56:23;6.70;99.90
21216;DHT22;10765;50.954;5.322;2024-03-23T01:58:48;6.80;99.90
21216;DHT22;10765;50.954;5.322;2024-03-23T02:01:15;6.90;99.90
21216;DHT22;10765;50.954;5.322;2024-03-23T02:03:42;6.90;99.90
21216;DHT22;10765;50.954;5.322;2024-03-23T02:06:09;6.80;99.90
21216;DHT22;10765;50.954;5.322;2024-03-23T02:08:35;6.80;99.90
21216;DHT22;10765;50.954;5.322;2024-03-23T02:11:02;6.80;99.90
21216;DHT22;10765;50.954;5.322;2024-03-23T02:13:28;6.80;99.90
21216;DHT22;10765;50.954;5.322;2024-03-23T02:15:57;6.70;99.90
21216;DHT22;10765;50.954;5.322;2024-03-23T02:18:23;6.60;99.90
21216;DHT22;10765;50.954;5.322;2024-03-23T02:20:51;6.60;99.90
21216;DHT22;10765;50.954;5.322;2024-03-23T02:23:18;6.60;99.90
21216;DHT22;10765;50.954;5.322;2024-03-23T02:25:45;6.40;99.90
21216;DHT22;10765;50.954;5.322;2024-03-23T02:28:11;6.30;99.90
21216;DHT22;10765;50.954;5.322;2024-03-23T02:30:38;6.30;99.90
21216;DHT22;10765;50.954;5.322;2024-03-23T02:33:04;6.40;99.90
21216;DHT22;10765;50.954;5.322;2024-03-23T02:35:31;6.30;99.90
21216;DHT22;10765;50.954;5.322;2024-03-23T02:37:57;6.30;99.90
21216;DHT22;10765;50.954;5.322;2024-03-23T02:40:27;6.30;99.90
21216;DHT22;10765;50.954;5.322;2024-03-23T02:42:53;6.20;99.90
21216;DHT22;10765;50.954;5.322;2024-03-23T02:45:20;6.20;99.90
21216;DHT22;10765;50.954;5.322;2024-03-23T02:47:46;6.30;99.90
21216;DHT22;10765;50.954;5.322;2024-03-23T02:50:17;6.30;99.90
21216;DHT22;10765;50.954;5.322;2024-03-23T02:52:43;6.30;99.90
21216;DHT22;10765;50.954;5.322;2024-03-23T02:55:10;6.30;99.90
21216;DHT22;10765;50.954;5.322;2024-03-23T02:57:37;6.20;99.90
21216;DHT22;10765;50.954;5.322;2024-03-23T03:00:05;6.30;99.90
21216;DHT22;10765;50.954;5.322;2024-03-23T03:02:32;6.40;99.90
21216;DHT22;10765;50.954;5.322;2024-03-23T03:04:59;6.40;99.90
21216;DHT22;10765;50.954;5.322;2024-03-23T03:07:25;6.40;99.90
21216;DHT22;10765;50.954;5.322;2024-03-23T03:09:52;6.30;99.90
21216;DHT22;10765;50.954;5.322;2024-03-23T03:12:18;6.30;99.90
21216;DHT22;10765;50.954;5.322;2024-03-23T03:14:46;6.30;99.90
21216;DHT22;10765;50.954;5.322;2024-03-23T03:17:13;6.30;99.90
21216;DHT22;10765;50.954;5.322;2024-03-23T03:19:40;6.10;99.90
21216;DHT22;10765;50.954;5.322;2024-03-23T03:22:06;6.10;99.90
21216;DHT22;10765;50.954;5.322;2024-03-23T03:24:33;6.10;99.90
21216;DHT22;10765;50.954;5.322;2024-03-23T03:26:58;6.10;99.90
21216;DHT22;10765;50.954;5.322;2024-03-23T03:29:25;6.00;99.90
21216;DHT22;10765;50.954;5.322;2024-03-23T03:31:53;6.10;99.90
21216;DHT22;10765;50.954;5.322;2024-03-23T03:34:19;6.00;99.90
21216;DHT22;10765;50.954;5.322;2024-03-23T03:36:45;6.20;99.90
21216;DHT22;10765;50.954;5.322;2024-03-23T03:39:12;6.30;99.90
21216;DHT22;10765;50.954;5.322;2024-03-23T03:41:38;6.30;99.90
21216;DHT22;10765;50.954;5.322;2024-03-23T03:44:05;6.20;99.90
21216;DHT22;10765;50.954;5.322;2024-03-23T03:46:31;6.30;99.90
21216;DHT22;10765;50.954;5.322;2024-03-23T03:48:59;6.40;99.90
21216;DHT22;10765;50.954;5.322;2024-03-23T03:51:25;6.40;99.90
21216;DHT22;10765;50.954;5.322;2024-03-23T03:53:52;6.40;99.90
21216;DHT22;10765;50.954;5.322;2024-03-23T03:56:17;6.40;99.90
21216;DHT22;10765;50.954;5.322;2024-03-23T03:58:44;6.40;99.90
21216;DHT22;10765;50.954;5.322;2024-03-23T04:01:10;6.40;99.90
21216;DHT22;10765;50.954;5.322;2024-03-23T04:03:37;6.40;99.90
21216;DHT22;10765;50.954;5.322;2024-03-23T04:06:06;6.30;99.90
21216;DHT22;10765;50.954;5.322;2024-03-23T04:08:33;6.20;99.90
21216;DHT22;10765;50.954;5.322;2024-03-23T04:10:59;6.20;99.90
21216;DHT22;10765;50.954;5.322;2024-03-23T04:13:26;6.30;99.90
21216;DHT22;10765;50.954;5.322;2024-03-23T04:15:54;6.30;99.90
21216;DHT22;10765;50.954;5.322;2024-03-23T04:18:21;6.20;99.90
21216;DHT22;10765;50.954;5.322;2024-03-23T04:20:47;6.00;99.90
21216;DHT22;10765;50.954;5.322;2024-03-23T04:23:15;6.00;99.90
21216;DHT22;10765;50.954;5.322;2024-03-23T04:25:41;6.00;99.90
21216;DHT22;10765;50.954;5.322;2024-03-23T04:28:08;6.00;99.90
21216;DHT22;10765;50.954;5.322;2024-03-23T04:30:34;6.10;99.90
21216;DHT22;10765;50.954;5.322;2024-03-23T04:33:01;6.10;99.90
21216;DHT22;10765;50.954;5.322;2024-03-23T04:35:26;6.10;99.90
21216;DHT22;10765;50.954;5.322;2024-03-23T04:37:54;6.00;99.90
21216;DHT22;10765;50.954;5.322;2024-03-23T04:40:22;6.00;99.90
21216;DHT22;10765;50.954;5.322;2024-03-23T04:42:49;5.90;99.90
21216;DHT22;10765;50.954;5.322;2024-03-23T04:45:16;5.90;99.90
21216;DHT22;10765;50.954;5.322;2024-03-23T04:47:43;6.00;99.90
21216;DHT22;10765;50.954;5.322;2024-03-23T04:50:10;6.10;99.90
21216;DHT22;10765;50.954;5.322;2024-03-23T04:52:37;6.10;99.90
21216;DHT22;10765;50.954;5.322;2024-03-23T04:55:04;6.00;99.90
21216;DHT22;10765;50.954;5.322;2024-03-23T04:57:32;6.00;99.90
21216;DHT22;10765;50.954;5.322;2024-03-23T04:59:58;6.00;99.90
21216;DHT22;10765;50.954;5.322;2024-03-23T05:02:28;5.90;99.90
21216;DHT22;10765;50.954;5.322;2024-03-23T05:04:55;5.80;99.90
21216;DHT22;10765;50.954;5.322;2024-03-23T05:07:21;5.80;99.90
21216;DHT22;10765;50.954;5.322;2024-03-23T05:09:48;5.80;99.90
21216;DHT22;10765;50.954;5.322;2024-03-23T05:12:14;5.70;99.90
21216;DHT22;10765;50.954;5.322;2024-03-23T05:14:42;5.70;99.90
21216;DHT22;10765;50.954;5.322;2024-03-23T05:17:08;5.60;99.90
21216;DHT22;10765;50.954;5.322;2024-03-23T05:19:35;5.60;99.90
21216;DHT22;10765;50.954;5.322;2024-03-23T05:22:01;5.60;99.90
21216;DHT22;10765;50.954;5.322;2024-03-23T05:24:28;5.60;99.90
21216;DHT22;10765;50.954;5.322;2024-03-23T05:26:54;5.60;99.90
21216;DHT22;10765;50.954;5.322;2024-03-23T05:29:24;5.70;99.90
21216;DHT22;10765;50.954;5.322;2024-03-23T05:31:51;5.80;99.90
21216;DHT22;10765;50.954;5.322;2024-03-23T05:34:18;5.90;99.90
21216;DHT22;10765;50.954;5.322;2024-03-23T05:36:44;5.80;99.90
21216;DHT22;10765;50.954;5.322;2024-03-23T05:39:11;5.90;99.90
21216;DHT22;10765;50.954;5.322;2024-03-23T05:41:37;5.90;99.90
21216;DHT22;10765;50.954;5.322;2024-03-23T05:44:04;5.90;99.90
21216;DHT22;10765;50.954;5.322;2024-03-23T05:46:30;5.80;99.90
21216;DHT22;10765;50.954;5.322;2024-03-23T05:49:01;5.70;99.90
21216;DHT22;10765;50.954;5.322;2024-03-23T05:51:29;5.80;99.90
21216;DHT22;10765;50.954;5.322;2024-03-23T05:53:54;5.90;99.90
21216;DHT22;10765;50.954;5.322;2024-03-23T05:56:21;6.00;99.90
21216;DHT22;10765;50.954;5.322;2024-03-23T05:58:47;6.10;99.90
21216;DHT22;10765;50.954;5.322;2024-03-23T06:01:14;6.20;99.90
21216;DHT22;10765;50.954;5.322;2024-03-23T06:03:40;6.00;99.90
21216;DHT22;10765;50.954;5.322;2024-03-23T06:06:10;6.00;99.90
21216;DHT22;10765;50.954;5.322;2024-03-23T06:08:38;6.10;99.90
21216;DHT22;10765;50.954;5.322;2024-03-23T06:11:05;6.20;99.90
21216;DHT22;10765;50.954;5.322;2024-03-23T06:13:31;6.20;99.90
21216;DHT22;10765;50.954;5.322;2024-03-23T06:15:59;6.20;99.90
21216;DHT22;10765;50.954;5.322;2024-03-23T06:18:25;6.30;99.90
21216;DHT22;10765;50.954;5.322;2024-03-23T06:20:52;6.30;99.90
21216;DHT22;10765;50.954;5.322;2024-03-23T06:23:19;6.30;99.90
21216;DHT22;10765;50.954;5.322;2024-03-23T06:25:46;6.40;99.90
21216;DHT22;10765;50.954;5.322;2024-03-23T06:28:12;6.50;99.90
21216;DHT22;10765;50.954;5.322;2024-03-23T06:30:39;6.40;99.90
21216;DHT22;10765;50.954;5.322;2024-03-23T06:33:05;6.40;99.90
21216;DHT22;10765;50.954;5.322;2024-03-23T06:35:32;6.50;99.90
21216;DHT22;10765;50.954;5.322;2024-03-23T06:37:58;6.50;99.90
21216;DHT22;10765;50.954;5.322;2024-03-23T06:40:26;7.10;99.90
21216;DHT22;10765;50.954;5.322;2024-03-23T06:42:52;7.70;99.90
21216;DHT22;10765;50.954;5.322;2024-03-23T06:45:19;8.20;99.90
21216;DHT22;10765;50.954;5.322;2024-03-23T06:47:48;8.90;99.90
21216;DHT22;10765;50.954;5.322;2024-03-23T06:50:15;9.20;99.90
21216;DHT22;10765;50.954;5.322;2024-03-23T06:52:41;9.70;99.90
21216;DHT22;10765;50.954;5.322;2024-03-23T06:55:08;9.90;99.90
21216;DHT22;10765;50.954;5.322;2024-03-23T06:57:35;10.80;99.90
21216;DHT22;10765;50.954;5.322;2024-03-23T07:00:03;10.90;1.00
21216;DHT22;10765;50.954;5.322;2024-03-23T07:02:29;10.40;1.00
21216;DHT22;10765;50.954;5.322;2024-03-23T07:04:56;10.00;1.00
21216;DHT22;10765;50.954;5.322;2024-03-23T07:07:22;9.40;1.00
21216;DHT22;10765;50.954;5.322;2024-03-23T07:09:49;8.80;1.00
21216;DHT22;10765;50.954;5.322;2024-03-23T07:12:15;8.40;99.90
21216;DHT22;10765;50.954;5.322;2024-03-23T07:14:43;8.50;1.00
21216;DHT22;10765;50.954;5.322;2024-03-23T07:17:09;9.50;99.90
21216;DHT22;10765;50.954;5.322;2024-03-23T07:19:42;10.40;99.90
21216;DHT22;10765;50.954;5.322;2024-03-23T07:22:08;11.50;99.90
21216;DHT22;10765;50.954;5.322;2024-03-23T07:24:35;12.00;99.90
21216;DHT22;10765;50.954;5.322;2024-03-23T07:27:02;12.20;99.90
21216;DHT22;10765;50.954;5.322;2024-03-23T07:29:29;11.30;99.90
21216;DHT22;10765;50.954;5.322;2024-03-23T07:31:56;10.90;99.90
21216;DHT22;10765;50.954;5.322;2024-03-23T07:34:23;10.80;99.90
21216;DHT22;10765;50.954;5.322;2024-03-23T07:36:49;10.40;99.90
21216;DHT22;10765;50.954;5.322;2024-03-23T07:39:16;10.30;99.90
21216;DHT22;10765;50.954;5.322;2024-03-23T07:41:44;9.80;99.90
21216;DHT22;10765;50.954;5.322;2024-03-23T07:44:11;9.50;99.90
21216;DHT22;10765;50.954;5.322;2024-03-23T07:46:38;9.60;1.00
21216;DHT22;10765;50.954;5.322;2024-03-23T07:49:06;9.20;1.00
21216;DHT22;10765;50.954;5.322;2024-03-23T07:51:32;9.30;1.00
21216;DHT22;10765;50.954;5.322;2024-03-23T07:54:00;9.20;1.00
21216;DHT22;10765;50.954;5.322;2024-03-23T07:56:26;9.60;1.00
21216;DHT22;10765;50.954;5.322;2024-03-23T07:58:53;10.30;99.90
21216;DHT22;10765;50.954;5.322;2024-03-23T08:01:19;10.20;99.90
21216;DHT22;10765;50.954;5.322;2024-03-23T08:03:46;9.90;99.90
21216;DHT22;10765;50.954;5.322;2024-03-23T08:06:14;10.00;99.90
21216;DHT22;10765;50.954;5.322;2024-03-23T08:08:42;9.80;99.90
21216;DHT22;10765;50.954;5.322;2024-03-23T08:11:08;11.40;99.90
21216;DHT22;10765;50.954;5.322;2024-03-23T08:13:37;12.50;42.50
21216;DHT22;10765;50.954;5.322;2024-03-23T08:16:03;11.60;3.60
21216;DHT22;10765;50.954;5.322;2024-03-23T08:18:30;10.80;41.30
21216;DHT22;10765;50.954;5.322;2024-03-23T08:20:57;9.90;99.90
21216;DHT22;10765;50.954;5.322;2024-03-23T08:23:26;11.00;99.90
21216;DHT22;10765;50.954;5.322;2024-03-23T08:25:52;11.10;61.50
21216;DHT22;10765;50.954;5.322;2024-03-23T08:28:23;11.40;90.20
21216;DHT22;10765;50.954;5.322;2024-03-23T08:30:49;11.50;22.70
21216;DHT22;10765;50.954;5.322;2024-03-23T08:33:16;12.60;17.90
21216;DHT22;10765;50.954;5.322;2024-03-23T08:35:42;14.10;1.00
21216;DHT22;10765;50.954;5.322;2024-03-23T08:38:09;14.80;1.00
21216;DHT22;10765;50.954;5.322;2024-03-23T08:40:36;13.40;1.00
21216;DHT22;10765;50.954;5.322;2024-03-23T08:43:03;13.90;1.00
21216;DHT22;10765;50.954;5.322;2024-03-23T08:45:29;14.60;1.00
21216;DHT22;10765;50.954;5.322;2024-03-23T08:47:56;14.40;1.00
21216;DHT22;10765;50.954;5.322;2024-03-23T08:50:22;14.10;1.00
21216;DHT22;10765;50.954;5.322;2024-03-23T08:52:51;14.90;1.00
21216;DHT22;10765;50.954;5.322;2024-03-23T08:55:17;14.20;1.00
21216;DHT22;10765;50.954;5.322;2024-03-23T08:57:45;12.90;1.00
21216;DHT22;10765;50.954;5.322;2024-03-23T09:00:12;11.90;1.00
21216;DHT22;10765;50.954;5.322;2024-03-23T09:02:40;12.70;1.00
21216;DHT22;10765;50.954;5.322;2024-03-23T09:05:06;13.00;1.00
21216;DHT22;10765;50.954;5.322;2024-03-23T09:07:34;12.60;1.00
21216;DHT22;10765;50.954;5.322;2024-03-23T09:10:00;12.70;1.00
21216;DHT22;10765;50.954;5.322;2024-03-23T09:12:26;13.60;1.00
21216;DHT22;10765;50.954;5.322;2024-03-23T09:14:54;14.60;1.00
21216;DHT22;10765;50.954;5.322;2024-03-23T09:17:21;13.40;1.00
21216;DHT22;10765;50.954;5.322;2024-03-23T09:19:46;12.70;1.00
21216;DHT22;10765;50.954;5.322;2024-03-23T09:22:13;15.20;1.00
21216;DHT22;10765;50.954;5.322;2024-03-23T09:24:40;14.30;1.00
21216;DHT22;10765;50.954;5.322;2024-03-23T09:27:07;13.10;1.00
21216;DHT22;10765;50.954;5.322;2024-03-23T09:29:33;11.60;1.00
21216;DHT22;10765;50.954;5.322;2024-03-23T09:32:01;10.70;1.00
21216;DHT22;10765;50.954;5.322;2024-03-23T09:34:27;10.20;1.00
21216;DHT22;10765;50.954;5.322;2024-03-23T09:36:54;10.30;1.00
21216;DHT22;10765;50.954;5.322;2024-03-23T09:39:20;10.20;2.70
21216;DHT22;10765;50.954;5.322;2024-03-23T09:41:47;10.30;18.00
21216;DHT22;10765;50.954;5.322;2024-03-23T09:44:13;10.60;24.60
21216;DHT22;10765;50.954;5.322;2024-03-23T09:46:40;11.10;12.30
21216;DHT22;10765;50.954;5.322;2024-03-23T09:49:08;10.90;1.00
21216;DHT22;10765;50.954;5.322;2024-03-23T09:51:36;9.90;1.00
21216;DHT22;10765;50.954;5.322;2024-03-23T09:54:02;9.50;18.50
21216;DHT22;10765;50.954;5.322;2024-03-23T09:56:29;8.80;99.90
21216;DHT22;10765;50.954;5.322;2024-03-23T09:59:01;8.20;99.90
21216;DHT22;10765;50.954;5.322;2024-03-23T10:01:29;8.00;99.90
21216;DHT22;10765;50.954;5.322;2024-03-23T10:03:55;8.00;1.00
21216;DHT22;10765;50.954;5.322;2024-03-23T10:06:24;8.00;1.00
21216;DHT22;10765;50.954;5.322;2024-03-23T10:08:50;8.00;99.90
21216;DHT22;10765;50.954;5.322;2024-03-23T10:11:19;8.00;99.90
21216;DHT22;10765;50.954;5.322;2024-03-23T10:13:46;8.10;1.00
21216;DHT22;10765;50.954;5.322;2024-03-23T10:16:21;8.20;1.00
21216;DHT22;10765;50.954;5.322;2024-03-23T10:18:47;13.20;99.90
21216;DHT22;10765;50.954;5.322;2024-03-23T10:21:15;16.10;1.00
21216;DHT22;10765;50.954;5.322;2024-03-23T10:23:43;16.30;1.00
21216;DHT22;10765;50.954;5.322;2024-03-23T10:26:18;16.70;1.00
21216;DHT22;10765;50.954;5.322;2024-03-23T10:29:05;17.20;1.00
21216;DHT22;10765;50.954;5.322;2024-03-23T10:31:34;18.20;1.00
21216;DHT22;10765;50.954;5.322;2024-03-23T10:34:02;16.80;1.00
21216;DHT22;10765;50.954;5.322;2024-03-23T10:36:30;17.00;1.00
21216;DHT22;10765;50.954;5.322;2024-03-23T10:38:57;16.10;1.00
21216;DHT22;10765;50.954;5.322;2024-03-23T10:41:26;16.10;1.00
21216;DHT22;10765;50.954;5.322;2024-03-23T10:43:53;17.50;1.00
21216;DHT22;10765;50.954;5.322;2024-03-23T10:46:22;13.90;1.00
21216;DHT22;10765;50.954;5.322;2024-03-23T10:48:49;12.30;1.00
21216;DHT22;10765;50.954;5.322;2024-03-23T10:51:16;10.80;1.00
21216;DHT22;10765;50.954;5.322;2024-03-23T10:53:42;9.50;1.00
21216;DHT22;10765;50.954;5.322;2024-03-23T10:56:11;7.30;22.00
21216;DHT22;10765;50.954;5.322;2024-03-23T10:58:40;6.00;99.90
21216;DHT22;10765;50.954;5.322;2024-03-23T11:01:10;5.70;1.00
21216;DHT22;10765;50.954;5.322;2024-03-23T11:03:37;5.90;99.90
21216;DHT22;10765;50.954;5.322;2024-03-23T11:06:05;6.00;99.90
21216;DHT22;10765;50.954;5.322;2024-03-23T11:08:32;6.50;99.90
21216;DHT22;10765;50.954;5.322;2024-03-23T11:11:19;7.70;77.00
21216;DHT22;10765;50.954;5.322;2024-03-23T11:13:48;7.70;1.00
21216;DHT22;10765;50.954;5.322;2024-03-23T11:16:15;9.10;1.00
21216;DHT22;10765;50.954;5.322;2024-03-23T11:18:43;8.70;99.90
21216;DHT22;10765;50.954;5.322;2024-03-23T11:21:10;8.30;1.00
21216;DHT22;10765;50.954;5.322;2024-03-23T11:23:37;7.80;1.00
21216;DHT22;10765;50.954;5.322;2024-03-23T11:26:07;9.20;1.00
21216;DHT22;10765;50.954;5.322;2024-03-23T11:28:35;9.90;99.90
21216;DHT22;10765;50.954;5.322;2024-03-23T11:31:01;9.70;99.90
21216;DHT22;10765;50.954;5.322;2024-03-23T11:33:28;13.30;99.90
21216;DHT22;10765;50.954;5.322;2024-03-23T11:35:54;16.10;1.00
21216;DHT22;10765;50.954;5.322;2024-03-23T11:38:22;13.80;1.00
21216;DHT22;10765;50.954;5.322;2024-03-23T11:40:48;12.10;1.00
21216;DHT22;10765;50.954;5.322;2024-03-23T11:43:16;10.80;6.70
21216;DHT22;10765;50.954;5.322;2024-03-23T11:45:45;10.10;97.80
21216;DHT22;10765;50.954;5.322;2024-03-23T11:48:13;9.70;99.90
21216;DHT22;10765;50.954;5.322;2024-03-23T11:50:40;9.70;99.90
21216;DHT22;10765;50.954;5.322;2024-03-23T11:53:15;9.20;99.90
21216;DHT22;10765;50.954;5.322;2024-03-23T11:55:48;9.10;99.90
21216;DHT22;10765;50.954;5.322;2024-03-23T11:58:16;8.70;99.90
21216;DHT22;10765;50.954;5.322;2024-03-23T12:00:48;8.50;99.90
21216;DHT22;10765;50.954;5.322;2024-03-23T12:03:16;9.10;99.90
21216;DHT22;10765;50.954;5.322;2024-03-23T12:05:48;8.30;99.90
21216;DHT22;10765;50.954;5.322;2024-03-23T12:08:17;7.30;99.90
21216;DHT22;10765;50.954;5.322;2024-03-23T12:10:46;6.80;99.90
21216;DHT22;10765;50.954;5.322;2024-03-23T12:13:18;6.50;99.90
21216;DHT22;10765;50.954;5.322;2024-03-23T12:15:49;6.60;99.90
21216;DHT22;10765;50.954;5.322;2024-03-23T12:18:15;6.80;99.90
21216;DHT22;10765;50.954;5.322;2024-03-23T12:20:42;8.30;99.90
21216;DHT22;10765;50.954;5.322;2024-03-23T12:23:09;12.90;99.90
21216;DHT22;10765;50.954;5.322;2024-03-23T12:25:37;17.40;1.00
21216;DHT22;10765;50.954;5.322;2024-03-23T12:28:03;19.20;1.00
21216;DHT22;10765;50.954;5.322;2024-03-23T12:30:32;18.10;1.00
21216;DHT22;10765;50.954;5.322;2024-03-23T12:32:59;17.50;1.00
21216;DHT22;10765;50.954;5.322;2024-03-23T12:35:26;15.50;1.00
21216;DHT22;10765;50.954;5.322;2024-03-23T12:37:52;13.90;1.00
21216;DHT22;10765;50.954;5.322;2024-03-23T12:40:19;13.90;1.00
21216;DHT22;10765;50.954;5.322;2024-03-23T12:42:45;16.00;1.00
21216;DHT22;10765;50.954;5.322;2024-03-23T12:45:12;18.40;1.00
21216;DHT22;10765;50.954;5.322;2024-03-23T12:47:38;20.10;1.00
21216;DHT22;10765;50.954;5.322;2024-03-23T12:50:06;15.00;1.00
21216;DHT22;10765;50.954;5.322;2024-03-23T12:52:33;12.10;1.00
21216;DHT22;10765;50.954;5.322;2024-03-23T12:54:59;11.30;1.00
21216;DHT22;10765;50.954;5.322;2024-03-23T12:57:26;10.20;1.00
21216;DHT22;10765;50.954;5.322;2024-03-23T12:59:53;9.50;1.00
21216;DHT22;10765;50.954;5.322;2024-03-23T13:02:19;9.10;1.00
21216;DHT22;10765;50.954;5.322;2024-03-23T13:04:49;8.60;18.80
21216;DHT22;10765;50.954;5.322;2024-03-23T13:07:16;8.40;63.20
21216;DHT22;10765;50.954;5.322;2024-03-23T13:09:44;8.30;99.90
21216;DHT22;10765;50.954;5.322;2024-03-23T13:12:10;8.80;99.90
21216;DHT22;10765;50.954;5.322;2024-03-23T13:14:37;12.00;40.70
21216;DHT22;10765;50.954;5.322;2024-03-23T13:17:04;12.10;5.30
21216;DHT22;10765;50.954;5.322;2024-03-23T13:19:31;11.50;9.50
21216;DHT22;10765;50.954;5.322;2024-03-23T13:22:02;10.50;24.60
21216;DHT22;10765;50.954;5.322;2024-03-23T13:24:31;10.10;75.90
21216;DHT22;10765;50.954;5.322;2024-03-23T13:26:57;10.00;99.90
21216;DHT22;10765;50.954;5.322;2024-03-23T13:29:24;9.80;99.90
21216;DHT22;10765;50.954;5.322;2024-03-23T13:31:51;9.00;99.90
21216;DHT22;10765;50.954;5.322;2024-03-23T13:34:19;8.80;99.90
21216;DHT22;10765;50.954;5.322;2024-03-23T13:36:45;9.50;99.90
21216;DHT22;10765;50.954;5.322;2024-03-23T13:39:13;10.80;99.90
21216;DHT22;10765;50.954;5.322;2024-03-23T13:41:42;15.80;1.00
21216;DHT22;10765;50.954;5.322;2024-03-23T13:44:09;18.10;1.00
21216;DHT22;10765;50.954;5.322;2024-03-23T13:46:36;15.80;1.00
21216;DHT22;10765;50.954;5.322;2024-03-23T13:49:03;16.10;1.00
21216;DHT22;10765;50.954;5.322;2024-03-23T13:51:29;17.00;1.00
21216;DHT22;10765;50.954;5.322;2024-03-23T13:53:56;17.30;1.00
21216;DHT22;10765;50.954;5.322;2024-03-23T13:56:22;15.00;1.00
21216;DHT22;10765;50.954;5.322;2024-03-23T13:58:51;17.50;1.00
21216;DHT22;10765;50.954;5.322;2024-03-23T14:01:17;19.60;1.00
21216;DHT22;10765;50.954;5.322;2024-03-23T14:03:44;15.30;1.00
21216;DHT22;10765;50.954;5.322;2024-03-23T14:06:10;13.00;1.00
21216;DHT22;10765;50.954;5.322;2024-03-23T14:08:41;11.30;1.00
21216;DHT22;10765;50.954;5.322;2024-03-23T14:11:07;10.70;1.00
21216;DHT22;10765;50.954;5.322;2024-03-23T14:13:35;10.40;1.00
21216;DHT22;10765;50.954;5.322;2024-03-23T14:16:03;10.00;1.00
21216;DHT22;10765;50.954;5.322;2024-03-23T14:18:30;8.90;6.10
21216;DHT22;10765;50.954;5.322;2024-03-23T14:20:57;8.20;40.10
21216;DHT22;10765;50.954;5.322;2024-03-23T14:23:25;7.60;78.90
21216;DHT22;10765;50.954;5.322;2024-03-23T14:25:53;7.50;96.80
21216;DHT22;10765;50.954;5.322;2024-03-23T14:28:20;7.70;99.90
21216;DHT22;10765;50.954;5.322;2024-03-23T14:30:47;8.00;99.90
21216;DHT22;10765;50.954;5.322;2024-03-23T14:33:16;8.40;99.90
21216;DHT22;10765;50.954;5.322;2024-03-23T14:35:43;8.80;93.30
21216;DHT22;10765;50.954;5.322;2024-03-23T14:38:11;9.50;74.50
21216;DHT22;10765;50.954;5.322;2024-03-23T14:40:37;10.00;57.00
21216;DHT22;10765;50.954;5.322;2024-03-23T14:43:04;10.70;42.60
21216;DHT22;10765;50.954;5.322;2024-03-23T14:45:30;10.50;41.80
21216;DHT22;10765;50.954;5.322;2024-03-23T14:47:57;9.70;79.00
21216;DHT22;10765;50.954;5.322;2024-03-23T14:50:25;9.20;99.90
21216;DHT22;10765;50.954;5.322;2024-03-23T14:52:52;9.10;99.90
21216;DHT22;10765;50.954;5.322;2024-03-23T14:55:18;9.00;99.90
21216;DHT22;10765;50.954;5.322;2024-03-23T14:57:46;9.10;99.90
21216;DHT22;10765;50.954;5.322;2024-03-23T15:00:12;9.30;99.90
21216;DHT22;10765;50.954;5.322;2024-03-23T15:02:39;9.80;99.90
21216;DHT22;10765;50.954;5.322;2024-03-23T15:05:06;10.10;99.90
21216;DHT22;10765;50.954;5.322;2024-03-23T15:07:36;10.20;99.90
21216;DHT22;10765;50.954;5.322;2024-03-23T15:10:04;10.20;99.90
21216;DHT22;10765;50.954;5.322;2024-03-23T15:12:31;10.00;99.90
21216;DHT22;10765;50.954;5.322;2024-03-23T15:14:58;9.80;99.90
21216;DHT22;10765;50.954;5.322;2024-03-23T15:17:25;10.00;99.90
21216;DHT22;10765;50.954;5.322;2024-03-23T15:19:51;10.40;99.90
21216;DHT22;10765;50.954;5.322;2024-03-23T15:22:19;10.90;99.90
21216;DHT22;10765;50.954;5.322;2024-03-23T15:24:46;11.10;85.40
21216;DHT22;10765;50.954;5.322;2024-03-23T15:27:13;11.30;64.40
21216;DHT22;10765;50.954;5.322;2024-03-23T15:29:39;11.30;52.70
21216;DHT22;10765;50.954;5.322;2024-03-23T15:32:07;10.70;47.10
21216;DHT22;10765;50.954;5.322;2024-03-23T15:34:33;10.20;56.40
21216;DHT22;10765;50.954;5.322;2024-03-23T15:37:00;9.90;68.70
21216;DHT22;10765;50.954;5.322;2024-03-23T15:39:26;9.70;81.40
21216;DHT22;10765;50.954;5.322;2024-03-23T15:41:55;9.40;86.00
21216;DHT22;10765;50.954;5.322;2024-03-23T15:44:21;9.40;93.70
21216;DHT22;10765;50.954;5.322;2024-03-23T15:46:48;9.30;95.70
21216;DHT22;10765;50.954;5.322;2024-03-23T15:49:14;9.30;97.90
21216;DHT22;10765;50.954;5.322;2024-03-23T15:51:41;9.30;99.90
21216;DHT22;10765;50.954;5.322;2024-03-23T15:54:09;9.40;96.50
21216;DHT22;10765;50.954;5.322;2024-03-23T15:56:36;9.50;97.00
21216;DHT22;10765;50.954;5.322;2024-03-23T15:59:03;9.60;93.50
21216;DHT22;10765;50.954;5.322;2024-03-23T16:01:32;9.90;90.50
21216;DHT22;10765;50.954;5.322;2024-03-23T16:03:59;9.90;87.80
21216;DHT22;10765;50.954;5.322;2024-03-23T16:06:26;9.70;85.30
21216;DHT22;10765;50.954;5.322;2024-03-23T16:08:52;9.60;91.20
21216;DHT22;10765;50.954;5.322;2024-03-23T16:11:19;9.50;94.40
21216;DHT22;10765;50.954;5.322;2024-03-23T16:13:45;9.30;95.90
21216;DHT22;10765;50.954;5.322;2024-03-23T16:16:14;9.10;99.50
21216;DHT22;10765;50.954;5.322;2024-03-23T16:18:41;9.00;99.90
21216;DHT22;10765;50.954;5.322;2024-03-23T16:21:09;9.00;99.90
21216;DHT22;10765;50.954;5.322;2024-03-23T16:23:35;9.00;99.90
21216;DHT22;10765;50.954;5.322;2024-03-23T16:26:03;9.00;99.90
21216;DHT22;10765;50.954;5.322;2024-03-23T16:28:30;9.00;99.90
21216;DHT22;10765;50.954;5.322;2024-03-23T16:30:58;8.80;99.90
21216;DHT22;10765;50.954;5.322;2024-03-23T16:33:26;8.70;99.90
21216;DHT22;10765;50.954;5.322;2024-03-23T16:35:58;8.30;99.90
21216;DHT22;10765;50.954;5.322;2024-03-23T16:38:24;7.90;99.90